Latest Coastal Weather Observations for Rundle Island

IDQ60701

Issued at 2:02 pm EST Sunday 5 July 2015 (issued every 10 minutes, with the page automatically refreshed every 10 minutes)

About coastal observations | Map of coastal stations | Coastal observations for QLD | Marine services | Other Formats
Station Details ID: 039322 Name: RUNDLE ISLAND Lat: -23.53 Lon: 151.28 Height: 19.8 m
Data from the previous 72 hours. | See also: Recent months at Rundle Island
Date/Time
EST
Temp

°C
Wind Pressure Rain
since 9am
mm
Weather Cloud Vis
km
Sea
Height
m
Swell
Dir
 
Speed
knots
Gust
knots
hPa Trend Height
m
Period
s
Dir
05/02:00pm 20.1 SE 12 14 1019.8 - - - - - - - - -
05/01:30pm 20.1 SE 11 12 1020.0 - - - - - - - - -
05/01:00pm 19.8 SE 12 14 1020.1 - - - - - - - - -
05/12:30pm 19.8 SE 13 15 1020.5 - - - - - - - - -
05/12:00pm 20.3 SSE 13 15 1020.9 - - - - - - - - -
05/11:30am 20.2 SSE 11 14 1021.2 - - - - - - - - -
05/11:00am 20.1 SSE 10 11 1021.5 - - - - - - - - -
05/10:30am 19.1 SSE 13 15 1021.7 - - - - - - - - -
05/10:00am 18.7 SSE 14 16 1021.9 - - - - - - - - -
05/09:30am 18.6 SSE 16 17 1021.8 - - - - - - - - -
05/09:00am 18.3 S 13 14 1021.7 - - - - - - - - -
05/08:30am 17.9 S 12 13 1021.7 - - - - - - - - -
05/08:00am 17.9 S 13 14 1021.4 - - - - - - - - -
05/07:30am 17.9 S 10 12 1021.1 - - - - - - - - -
05/07:00am 18.0 S 13 15 1020.6 - - - - - - - - -
05/06:30am 18.0 S 12 13 1020.3 - - - - - - - - -
05/06:00am 17.9 S 12 14 1020.0 - - - - - - - - -
05/05:30am 18.3 S 12 14 1019.7 - - - - - - - - -
05/05:00am 18.3 S 14 16 1019.5 - - - - - - - - -
05/04:30am 18.6 S 13 15 1019.3 - - - - - - - - -
05/04:00am 19.0 SSE 12 14 1019.2 - - - - - - - - -
05/03:30am 19.0 SSE 14 16 1019.1 - - - - - - - - -
05/03:00am 19.0 SSE 13 16 1019.2 - - - - - - - - -
05/02:00am 19.0 SSE 15 17 1019.7 - - - - - - - - -
05/01:30am 18.9 SSE 14 16 1020.0 - - - - - - - - -
05/01:00am 19.3 SSE 15 17 1020.2 - - - - - - - - -
05/12:30am 19.5 SSE 14 16 1020.5 - - - - - - - - -
05/12:00am 19.9 SE 13 15 1020.7 - - - - - - - - -
 
Date/Time
EST
Temp

°C
Wind Pressure Rain
since 9am
mm
Weather Cloud Vis
km
Sea
Height
m
Swell
Dir
 
Speed
knots
Gust
knots
hPa Trend Height
m
Period
s
Dir
04/11:30pm 19.9 SE 13 15 1021.0 - - - - - - - - -
04/11:00pm 19.8 SE 13 14 1021.1 - - - - - - - - -
04/10:30pm 19.6 SE 13 15 1021.2 - - - - - - - - -
04/10:00pm 19.8 SE 14 16 1021.2 - - - - - - - - -
04/09:30pm 19.9 ESE 15 16 1021.4 - - - - - - - - -
04/09:00pm 19.9 ESE 13 15 1021.4 - - - - - - - - -
04/08:30pm 20.0 SE 14 16 1021.2 - - - - - - - - -
04/08:00pm 19.9 SE 12 13 1021.2 - - - - - - - - -
04/07:30pm 19.8 SE 14 16 1020.9 - - - - - - - - -
04/07:00pm 19.7 SE 14 16 1020.4 - - - - - - - - -
04/06:30pm 19.9 SE 16 18 1020.0 - - - - - - - - -
04/06:00pm 19.7 SE 17 19 1019.6 - - - - - - - - -
04/05:30pm 19.6 SE 16 17 1019.6 - - - - - - - - -
04/05:00pm 19.7 SE 15 17 1019.5 - - - - - - - - -
04/04:30pm 19.8 SE 13 15 1019.3 - - - - - - - - -
04/04:00pm 19.7 SE 15 17 1019.1 - - - - - - - - -
04/03:30pm 19.7 SE 15 17 1019.1 - - - - - - - - -
04/03:00pm 19.6 SE 15 17 1019.1 - - - - - - - - -
04/02:30pm 19.5 SE 15 19 1019.0 - - - - - - - - -
04/02:00pm 19.6 SE 14 16 1019.0 - - - - - - - - -
04/01:30pm 19.7 SE 15 16 1019.2 - - - - - - - - -
04/01:00pm 19.5 SE 15 17 1019.4 - - - - - - - - -
04/12:30pm 19.5 SE 15 17 1019.7 - - - - - - - - -
04/12:00pm 19.3 SE 17 21 1020.2 - - - - - - - - -
04/11:30am 19.0 SSE 18 22 1020.5 - - - - - - - - -
04/11:00am 18.4 S 16 18 1020.8 - - - - - - - - -
04/10:30am 18.0 SSE 17 19 1021.0 - - - - - - - - -
04/10:00am 17.7 SSE 18 20 1021.3 - - - - - - - - -
04/09:30am 17.6 SSE 17 19 1021.5 - - - - - - - - -
04/09:00am 17.5 S 18 23 1021.5 - - - - - - - - -
04/08:30am 16.7 S 15 17 1021.7 - - - - - - - - -
04/08:00am 17.3 S 15 18 1021.6 - - - - - - - - -
04/07:30am 16.9 S 17 20 1021.4 - - - - - - - - -
04/07:00am 16.7 S 17 20 1021.1 - - - - - - - - -
04/06:30am 16.5 S 17 20 1020.7 - - - - - - - - -
04/06:00am 16.7 S 19 23 1020.4 - - - - - - - - -
04/05:30am 17.2 SSE 20 23 1020.0 - - - - - - - - -
04/05:00am 16.9 S 17 21 1019.9 - - - - - - - - -
04/04:30am 16.8 S 16 19 1019.9 - - - - - - - - -
04/04:00am 16.9 S 16 19 1020.0 - - - - - - - - -
04/03:30am 16.8 S 15 18 1020.1 - - - - - - - - -
04/03:00am 17.3 S 14 17 1020.0 - - - - - - - - -
04/02:30am 16.8 S 11 13 1020.3 - - - - - - - - -
04/02:00am 17.0 S 13 16 1020.5 - - - - - - - - -
04/01:30am 17.0 S 14 17 1020.7 - - - - - - - - -
04/01:00am 17.4 S 15 18 1020.9 - - - - - - - - -
04/12:30am 17.4 SSE 16 19 1021.0 - - - - - - - - -
04/12:00am 17.4 S 17 19 1021.2 - - - - - - - - -
 
Date/Time
EST
Temp

°C
Wind Pressure Rain
since 9am
mm
Weather Cloud Vis
km
Sea
Height
m
Swell
Dir
 
Speed
knots
Gust
knots
hPa Trend Height
m
Period
s
Dir
03/11:30pm 17.8 S 16 18 1021.5 - - - - - - - - -
03/11:00pm 18.3 SSE 17 20 1021.5 - - - - - - - - -
03/10:30pm 18.6 SSE 20 23 1021.5 - - - - - - - - -
03/10:00pm 18.6 SSE 19 22 1021.5 - - - - - - - - -
03/09:30pm 19.1 SE 19 24 1021.5 - - - - - - - - -
03/09:00pm 18.8 SSE 19 22 1021.4 - - - - - - - - -
03/08:30pm 19.1 SE 19 22 1021.4 - - - - - - - - -
03/08:00pm 19.1 SE 20 23 1021.3 - - - - - - - - -
03/07:30pm 19.0 SE 19 21 1021.0 - - - - - - - - -
03/07:00pm 19.0 SSE 18 21 1020.7 - - - - - - - - -
03/06:30pm 19.1 SSE 16 19 1020.5 - - - - - - - - -
03/06:00pm 19.1 SSE 16 18 1020.2 - - - - - - - - -
03/05:30pm 19.0 SSE 14 17 1020.1 - - - - - - - - -
03/05:00pm 18.6 S 12 14 1019.9 - - - - - - - - -
03/04:30pm 18.3 S 10 12 1019.5 - - - - - - - - -
03/04:00pm 18.1 SSE 9 12 1019.2 - - - - - - - - -
03/03:30pm 17.8 SSE 11 13 1019.1 - - - - - - - - -
03/03:00pm 17.3 SSE 10 13 1019.0 - - - - - - - - -
03/02:30pm 16.8 SSE 11 13 1019.0 - - - - - - - - -
03/02:00pm 16.5 S 11 14 1019.3 - - - - - - - - -
03/01:30pm 16.2 SSE 10 12 1019.6 - - - - - - - - -
03/01:00pm 16.2 SSE 10 14 1020.0 - - - - - - - - -
03/12:30pm 15.3 SE 12 15 1020.4 - - - - - - - - -
03/12:00pm 15.3 SSE 13 16 1021.0 - - - - - - - - -
03/11:30am 15.2 S 10 14 1021.3 - - - - - - - - -
03/11:00am 15.0 SSE 10 15 1021.6 - - - - - - - - -
03/10:30am 14.7 S 10 13 1021.7 - - - - - - - - -
03/10:00am 14.0 SSW 11 16 1021.6 - - - - - - - - -
03/09:30am 13.2 SSW 14 16 1021.6 - - - - - - - - -
03/09:00am 13.1 SSW 16 19 1021.5 - - - - - - - - -
03/08:30am 13.3 SSW 18 20 1021.0 - - - - - - - - -
03/08:00am 13.0 SSW 18 20 1020.6 - - - - - - - - -
03/07:30am 12.5 SSW 17 20 1020.5 - - - - - - - - -
03/07:00am 12.7 SSW 16 19 1020.1 - - - - - - - - -
03/06:30am 12.9 SSW 18 20 1019.7 - - - - - - - - -
03/06:00am 13.0 S 19 22 1019.2 - - - - - - - - -
03/05:30am 13.0 SSW 17 20 1019.0 - - - - - - - - -
03/05:00am 13.2 SSW 19 22 1018.5 - - - - - - - - -
03/04:30am 13.8 SSW 22 26 1018.3 - - - - - - - - -
03/04:00am 14.1 SSW 22 25 1018.4 - - - - - - - - -
03/03:30am 14.2 SSW 19 23 1018.7 - - - - - - - - -
03/03:00am 15.0 SSW 21 25 1018.6 - - - - - - - - -
03/02:30am 15.1 SSW 22 26 1018.7 - - - - - - - - -
03/02:00am 15.8 SSW 22 26 1019.1 - - - - - - - - -
03/01:30am 16.1 SSW 17 21 1019.6 - - - - - - - - -
03/01:00am 16.4 SSW 17 21 1020.0 - - - - - - - - -
03/12:30am 16.6 SSW 16 18 1020.2 - - - - - - - - -
03/12:00am 17.3 SSW 13 15 1020.2 - - - - - - - - -
 
Date/Time
EST
Temp

°C
Wind Pressure Rain
since 9am
mm
Weather Cloud Vis
km
Sea
Height
m
Swell
Dir
 
Speed
knots
Gust
knots
hPa Trend Height
m
Period
s
Dir
02/11:30pm 17.9 SSW 13 15 1020.4 - - - - - - - - -
02/11:00pm 18.1 SSW 13 14 1020.6 - - - - - - - - -
02/10:30pm 18.6 SSW 13 15 1020.7 - - - - - - - - -
02/10:00pm 18.9 S 10 12 1020.6 - - - - - - - - -
02/09:00pm 19.8 SSE 14 - 1020.4 - - - - - - - - -
02/04:00pm 20.8 ESE 9 11 1018.0 - - - - - - - - -
02/03:30pm 20.7 ESE 10 11 1018.0 - - - - - - - - -
02/03:00pm 20.6 ESE 10 11 1018.1 - - - - - - - - -
02/02:30pm 20.4 - - - 1018.0 - - - - - - - - -

Other Formats:

Comma delimited format used in spreadsheet applications
http://www.bom.gov.au/fwo/IDQ60701/IDQ60701.94378.axf

JavaScript Object Notation format (JSON) in row-major order
http://www.bom.gov.au/fwo/IDQ60701/IDQ60701.94378.json